createdAt,value
2022-12-15T00:02:49.619Z,60.82
2022-12-15T00:05:38.716Z,61.03
2022-12-15T00:08:32.389Z,60.98
2022-12-15T00:11:29.901Z,61.09
2022-12-15T00:14:38.776Z,61.01
2022-12-15T00:17:24.476Z,61.18
2022-12-15T00:20:11.709Z,61.30
2022-12-15T00:22:57.596Z,61.05
2022-12-15T00:25:42.844Z,61.44
2022-12-15T00:28:28.327Z,61.06
2022-12-15T00:31:14.235Z,61.10
2022-12-15T00:33:59.618Z,61.09
2022-12-15T00:36:46.573Z,60.87
2022-12-15T00:39:18.189Z,61.70
2022-12-15T00:41:46.199Z,61.47
2022-12-15T00:44:18.964Z,61.69
2022-12-15T00:46:56.335Z,61.16
2022-12-15T00:49:43.482Z,61.06
2022-12-15T00:52:30.910Z,61.05
2022-12-15T00:55:16.561Z,61.05
2022-12-15T00:58:02.355Z,60.98
2022-12-15T01:00:48.149Z,60.93
2022-12-15T01:03:36.213Z,60.73
2022-12-15T01:06:24.511Z,60.80
2022-12-15T01:09:11.702Z,60.80
2022-12-15T01:11:57.518Z,60.76
2022-12-15T01:14:42.787Z,61.49
2022-12-15T01:17:28.464Z,61.31
2022-12-15T01:20:14.500Z,61.02
2022-12-15T01:22:43.409Z,61.53
2022-12-15T01:25:13.274Z,62.41
2022-12-15T01:27:41.327Z,62.38
2022-12-15T01:30:12.068Z,62.42
2022-12-15T01:32:45.681Z,61.93
2022-12-15T01:35:14.111Z,62.21
2022-12-15T01:37:42.340Z,62.14
2022-12-15T01:40:33.579Z,62.24
2022-12-15T01:43:01.637Z,62.04
2022-12-15T01:45:55.909Z,61.61
2022-12-15T01:48:28.283Z,61.68
2022-12-15T01:51:02.525Z,61.49
2022-12-15T01:53:34.698Z,61.40
2022-12-15T01:56:06.162Z,61.32
2022-12-15T01:58:34.403Z,61.27
2022-12-15T02:01:03.580Z,61.48
2022-12-15T02:03:33.379Z,61.44
2022-12-15T02:06:02.749Z,61.49
2022-12-15T02:08:32.080Z,61.50
2022-12-15T02:11:33.156Z,61.34
2022-12-15T02:14:03.677Z,61.52
2022-12-15T02:16:43.260Z,61.31
2022-12-15T02:19:34.356Z,61.38
2022-12-15T02:22:19.049Z,61.13
2022-12-15T02:25:04.733Z,60.97
2022-12-15T02:27:53.252Z,60.91
2022-12-15T02:30:27.561Z,60.98
2022-12-15T02:33:03.730Z,61.15
2022-12-15T02:35:37.225Z,61.28
2022-12-15T02:38:05.264Z,61.07
2022-12-15T02:40:33.309Z,60.91
2022-12-15T02:43:04.449Z,60.69
2022-12-15T02:45:41.834Z,60.51
2022-12-15T02:48:20.576Z,60.81
2022-12-15T02:51:05.485Z,61.22
2022-12-15T02:53:56.892Z,60.92
2022-12-15T02:56:32.109Z,61.18
2022-12-15T02:59:11.175Z,60.90
2022-12-15T03:01:47.845Z,60.85
2022-12-15T03:04:19.201Z,60.94
2022-12-15T03:06:59.029Z,61.05
2022-12-15T03:09:28.996Z,61.02
2022-12-15T03:11:57.118Z,61.27
2022-12-15T03:14:26.527Z,61.65
2022-12-15T03:16:56.483Z,61.81
2022-12-15T03:19:25.922Z,61.45
2022-12-15T03:21:53.957Z,61.32
2022-12-15T03:24:22.010Z,61.66
2022-12-15T03:26:50.235Z,61.66
2022-12-15T03:29:18.445Z,61.78
2022-12-15T03:31:49.922Z,61.98
2022-12-15T03:34:19.824Z,61.70
2022-12-15T03:36:48.107Z,62.23
2022-12-15T03:39:16.156Z,61.94
2022-12-15T03:41:44.237Z,61.67
2022-12-15T03:44:12.369Z,62.24
2022-12-15T03:46:40.424Z,62.95
2022-12-15T03:49:08.460Z,62.36
2022-12-15T03:51:37.992Z,62.32
2022-12-15T03:54:06.714Z,63.27
2022-12-15T03:56:34.751Z,63.58
2022-12-15T03:59:03.368Z,63.99
2022-12-15T04:01:33.163Z,63.88
2022-12-15T04:04:02.112Z,63.77
2022-12-15T04:06:31.104Z,63.47
2022-12-15T04:09:00.515Z,63.65
2022-12-15T04:11:28.499Z,64.57
2022-12-15T04:13:56.516Z,64.25
2022-12-15T04:16:24.605Z,64.30
2022-12-15T04:19:12.989Z,64.08
2022-12-15T04:21:40.018Z,64.15
2022-12-15T04:24:26.994Z,64.14
2022-12-15T04:27:12.120Z,64.13
2022-12-15T04:29:57.562Z,63.98
2022-12-15T04:32:43.226Z,63.97
2022-12-15T04:35:30.379Z,63.54
2022-12-15T04:38:16.056Z,63.33
2022-12-15T04:41:03.184Z,63.50
2022-12-15T04:43:49.139Z,63.50
2022-12-15T04:46:34.508Z,63.31
2022-12-15T04:49:19.703Z,63.47
2022-12-15T04:52:05.120Z,63.14
2022-12-15T04:54:50.386Z,63.31
2022-12-15T04:57:37.367Z,63.35
2022-12-15T05:00:24.336Z,63.28
2022-12-15T05:03:13.605Z,63.19
2022-12-15T05:06:01.925Z,63.25
2022-12-15T05:08:47.349Z,63.63
2022-12-15T05:11:36.904Z,63.75
2022-12-15T05:14:24.188Z,63.82
2022-12-15T05:17:10.002Z,64.14
2022-12-15T05:19:55.416Z,64.67
2022-12-15T05:22:40.677Z,64.43
2022-12-15T05:25:27.017Z,63.84
2022-12-15T05:28:12.539Z,63.81
2022-12-15T05:30:59.436Z,63.08
2022-12-15T05:33:27.630Z,63.42
2022-12-15T05:35:57.846Z,63.11
2022-12-15T05:38:25.921Z,62.64
2022-12-15T05:40:53.928Z,63.13
2022-12-15T05:43:26.338Z,62.98
2022-12-15T05:45:56.166Z,62.80
2022-12-15T05:48:24.229Z,62.86
2022-12-15T05:50:52.295Z,62.82
2022-12-15T05:53:20.351Z,63.19
2022-12-15T05:55:48.458Z,63.15
2022-12-15T05:58:16.504Z,63.19
2022-12-15T06:00:44.490Z,63.38
2022-12-15T06:03:13.960Z,63.50
2022-12-15T06:05:43.106Z,63.65
2022-12-15T06:08:11.264Z,63.85
2022-12-15T06:10:39.276Z,63.88
2022-12-15T06:13:07.254Z,64.54
2022-12-15T06:15:35.280Z,64.07
2022-12-15T06:18:03.319Z,63.94
2022-12-15T06:20:32.686Z,63.31
2022-12-15T06:23:00.680Z,63.56
2022-12-15T06:25:28.728Z,63.92
2022-12-15T06:28:01.530Z,63.44
2022-12-15T06:30:30.282Z,63.24
2022-12-15T06:32:58.306Z,63.57
2022-12-15T06:35:26.333Z,63.00
2022-12-15T06:37:55.732Z,63.38
2022-12-15T06:40:23.783Z,62.92
2022-12-15T06:42:52.073Z,62.59
2022-12-15T06:45:20.148Z,63.05
2022-12-15T06:47:49.725Z,63.09
2022-12-15T06:50:17.836Z,63.23
2022-12-15T06:52:45.911Z,62.98
2022-12-15T06:55:15.452Z,63.00
2022-12-15T06:57:43.468Z,63.26
2022-12-15T07:00:12.472Z,63.13
2022-12-15T07:02:41.333Z,63.95
2022-12-15T07:05:10.039Z,63.70
2022-12-15T07:07:38.057Z,63.66
2022-12-15T07:10:07.125Z,63.48
2022-12-15T07:12:36.505Z,63.51
2022-12-15T07:15:05.031Z,63.53
2022-12-15T07:17:33.031Z,63.53
2022-12-15T07:20:01.036Z,63.45
2022-12-15T07:22:29.638Z,63.27
2022-12-15T07:24:57.636Z,62.93
2022-12-15T07:27:25.712Z,63.69
2022-12-15T07:29:55.120Z,63.83
2022-12-15T07:32:23.279Z,63.35
2022-12-15T07:34:51.339Z,63.60
2022-12-15T07:37:19.365Z,63.56
2022-12-15T07:39:47.376Z,63.58
2022-12-15T07:42:15.352Z,63.42
2022-12-15T07:44:46.526Z,63.33
2022-12-15T07:47:19.389Z,63.02
2022-12-15T07:49:47.525Z,63.16
2022-12-15T07:52:15.513Z,63.11
2022-12-15T07:54:43.517Z,63.37
2022-12-15T07:57:11.557Z,63.08
2022-12-15T07:59:39.615Z,62.85
2022-12-15T08:02:08.089Z,63.08
2022-12-15T08:04:38.110Z,62.76
2022-12-15T08:07:07.140Z,62.53
2022-12-15T08:09:35.125Z,62.62
2022-12-15T08:12:03.140Z,62.79
2022-12-15T08:14:32.346Z,62.32
2022-12-15T08:17:00.377Z,62.26
2022-12-15T08:19:28.625Z,62.03
2022-12-15T08:21:58.543Z,61.70
2022-12-15T08:24:26.519Z,61.92
2022-12-15T08:26:54.509Z,62.10
2022-12-15T08:29:50.066Z,61.95
2022-12-15T08:32:10.757Z,61.69
2022-12-15T08:34:39.985Z,62.21
2022-12-15T08:37:09.525Z,62.02
2022-12-15T08:39:37.584Z,61.94
2022-12-15T08:42:05.876Z,61.90
2022-12-15T08:44:33.987Z,61.61
2022-12-15T08:47:02.033Z,61.47
2022-12-15T08:49:30.097Z,61.38
2022-12-15T08:51:58.095Z,61.69
2022-12-15T08:54:27.514Z,61.43
2022-12-15T08:56:55.488Z,61.50
2022-12-15T08:59:23.524Z,61.38
2022-12-15T09:01:51.729Z,61.02
2022-12-15T09:04:19.889Z,61.25
2022-12-15T09:06:50.666Z,61.11
2022-12-15T09:09:19.183Z,60.91
2022-12-15T09:11:48.835Z,60.73
2022-12-15T09:14:17.565Z,60.72
2022-12-15T09:16:45.822Z,60.53
2022-12-15T09:19:19.990Z,60.60
2022-12-15T09:21:48.344Z,60.61
2022-12-15T09:24:25.908Z,60.89
2022-12-15T09:27:03.198Z,60.47
2022-12-15T09:29:31.780Z,60.86
2022-12-15T09:31:59.788Z,61.02
2022-12-15T09:34:27.889Z,60.88
2022-12-15T09:36:56.936Z,60.96
2022-12-15T09:39:25.145Z,61.02
2022-12-15T09:41:55.858Z,60.85
2022-12-15T09:44:26.405Z,60.59
2022-12-15T09:47:06.932Z,60.39
2022-12-15T09:49:47.417Z,60.18
2022-12-15T09:52:18.892Z,60.56
2022-12-15T09:54:47.424Z,62.63
2022-12-15T09:57:23.858Z,63.16
2022-12-15T10:00:06.202Z,59.48
2022-12-15T10:03:06.067Z,54.64
2022-12-15T10:06:07.111Z,55.55
2022-12-15T10:08:35.772Z,54.63
2022-12-15T10:11:06.280Z,53.10
2022-12-15T10:13:44.396Z,51.13
2022-12-15T10:16:23.741Z,49.37
2022-12-15T10:19:01.365Z,48.91
2022-12-15T10:21:32.216Z,48.73
2022-12-15T10:24:08.935Z,48.78
2022-12-15T10:26:37.111Z,48.01
2022-12-15T10:29:18.090Z,48.00
2022-12-15T10:31:53.390Z,46.13
2022-12-15T10:34:28.418Z,45.57
2022-12-15T10:36:58.185Z,46.46
2022-12-15T10:39:38.446Z,46.35
2022-12-15T10:42:20.946Z,45.30
2022-12-15T10:44:51.058Z,44.54
2022-12-15T10:47:24.061Z,45.12
2022-12-15T10:49:52.209Z,45.67
2022-12-15T10:52:27.430Z,44.35
2022-12-15T10:54:56.614Z,44.08
2022-12-15T10:57:31.572Z,44.80
2022-12-15T11:00:28.316Z,45.86
2022-12-15T11:02:59.214Z,48.44
2022-12-15T11:05:28.140Z,50.47
2022-12-15T11:07:57.455Z,50.93
2022-12-15T11:10:28.244Z,52.13
2022-12-15T11:12:59.428Z,52.85
2022-12-15T11:18:42.552Z,53.59
2022-12-15T11:21:15.594Z,53.88
2022-12-15T11:23:52.417Z,53.82
2022-12-15T11:26:36.856Z,53.92
2022-12-15T11:29:16.749Z,54.46
2022-12-15T11:31:46.513Z,54.94
2022-12-15T11:34:20.419Z,55.94
2022-12-15T11:36:59.803Z,55.20
2022-12-15T11:39:43.154Z,53.35
2022-12-15T11:42:20.076Z,49.94
2022-12-15T11:44:59.381Z,50.05
2022-12-15T11:47:39.599Z,46.98
2022-12-15T11:50:28.494Z,46.83
2022-12-15T11:53:15.805Z,45.98
2022-12-15T11:55:51.927Z,45.46
2022-12-15T11:58:58.099Z,45.83
2022-12-15T12:01:58.804Z,45.68
2022-12-15T12:04:36.205Z,45.48
2022-12-15T12:07:12.063Z,44.67
2022-12-15T12:09:48.689Z,43.84
2022-12-15T12:12:24.184Z,42.32
2022-12-15T12:15:05.053Z,42.58
2022-12-15T12:17:41.407Z,43.67
2022-12-15T12:20:19.258Z,44.85
2022-12-15T12:22:56.568Z,46.73
2022-12-15T12:25:26.689Z,49.33
2022-12-15T12:27:59.171Z,49.03
2022-12-15T12:30:31.606Z,48.40
2022-12-15T12:33:07.561Z,46.96
2022-12-15T12:35:42.522Z,45.77
2022-12-15T12:38:13.721Z,45.96
2022-12-15T12:40:57.330Z,48.48
2022-12-15T12:43:34.096Z,48.83
2022-12-15T12:46:08.047Z,48.95
2022-12-15T12:48:41.297Z,47.37
2022-12-15T12:51:24.414Z,45.93
2022-12-15T12:53:54.766Z,46.17
2022-12-15T12:56:43.562Z,45.38
2022-12-15T12:59:36.411Z,43.65
2022-12-15T13:02:50.449Z,44.03
2022-12-15T13:05:28.437Z,43.19
2022-12-15T13:08:17.165Z,43.57
2022-12-15T13:10:50.874Z,43.60
2022-12-15T13:16:37.177Z,42.90
2022-12-15T13:19:09.974Z,44.87
2022-12-15T13:21:56.158Z,46.74
2022-12-15T13:24:33.090Z,48.12
2022-12-15T13:27:16.520Z,48.44
2022-12-15T13:29:58.820Z,48.15
2022-12-15T13:32:33.487Z,47.02
2022-12-15T13:35:17.239Z,45.80
2022-12-15T13:37:50.475Z,45.48
2022-12-15T13:40:34.084Z,45.02
2022-12-15T13:43:11.434Z,46.76
2022-12-15T13:48:41.422Z,48.00
2022-12-15T13:51:34.011Z,47.54
2022-12-15T13:54:12.938Z,47.56
2022-12-15T13:56:54.487Z,46.99
2022-12-15T13:59:42.363Z,46.70
2022-12-15T14:02:25.638Z,46.54
2022-12-15T14:05:16.074Z,46.68
2022-12-15T14:07:52.604Z,47.83
2022-12-15T14:10:25.408Z,48.48
2022-12-15T14:12:56.182Z,50.14
2022-12-15T14:15:29.644Z,50.62
2022-12-15T14:18:00.787Z,51.07
2022-12-15T14:20:31.966Z,51.75
2022-12-15T14:23:00.119Z,52.49
2022-12-15T14:25:31.767Z,52.09
2022-12-15T14:27:59.970Z,52.53
2022-12-15T14:30:32.798Z,53.55
2022-12-15T14:33:03.520Z,53.61
2022-12-15T14:35:36.414Z,53.81
2022-12-15T14:38:08.525Z,54.42
2022-12-15T14:40:38.758Z,54.33
2022-12-15T14:43:11.038Z,54.21
2022-12-15T14:45:40.618Z,55.22
2022-12-15T14:48:39.977Z,55.54
2022-12-15T14:51:01.468Z,55.57
2022-12-15T14:53:34.292Z,55.26
2022-12-15T14:56:15.448Z,55.23
2022-12-15T14:58:43.491Z,56.10
2022-12-15T15:01:26.183Z,55.85
2022-12-15T15:03:04.701Z,53.61
2022-12-15T15:03:11.090Z,47.16
2022-12-15T15:03:12.980Z,42.67
2022-12-15T15:04:02.277Z,55.83
2022-12-15T15:06:36.033Z,55.90
2022-12-15T15:09:17.669Z,56.42
2022-12-15T15:11:46.141Z,56.81
2022-12-15T15:14:16.111Z,56.82
2022-12-15T15:16:46.472Z,57.16
2022-12-15T15:19:22.321Z,56.53
2022-12-15T15:21:50.538Z,57.78
2022-12-15T15:24:27.024Z,56.88
2022-12-15T15:26:55.154Z,57.44
2022-12-15T15:29:38.375Z,57.34
2022-12-15T15:32:15.926Z,57.61
2022-12-15T15:34:44.971Z,57.12
2022-12-15T15:37:18.998Z,58.48
2022-12-15T15:39:48.683Z,57.93
2022-12-15T15:42:16.989Z,57.99
2022-12-15T15:44:45.028Z,58.05
2022-12-15T15:47:22.203Z,57.88
2022-12-15T15:49:50.993Z,58.74
2022-12-15T15:52:19.391Z,58.67
2022-12-15T15:54:48.024Z,59.45
2022-12-15T15:57:17.043Z,58.62
2022-12-15T15:59:46.518Z,58.14
2022-12-15T16:02:15.576Z,58.25
2022-12-15T16:04:45.713Z,58.58
2022-12-15T16:07:21.469Z,58.09
2022-12-15T16:09:49.954Z,58.18
2022-12-15T16:12:27.552Z,58.50
2022-12-15T16:14:56.016Z,58.25
2022-12-15T16:17:25.539Z,58.67
2022-12-15T16:19:55.024Z,59.16
2022-12-15T16:22:23.764Z,58.87
2022-12-15T16:24:51.876Z,59.17
2022-12-15T16:27:20.067Z,59.03
2022-12-15T16:29:48.068Z,58.69
2022-12-15T16:32:16.107Z,58.49
2022-12-15T16:34:44.172Z,59.17
2022-12-15T16:37:26.360Z,58.83
2022-12-15T16:39:54.407Z,59.03
2022-12-15T16:42:22.446Z,59.14
2022-12-15T16:44:50.481Z,58.99
2022-12-15T16:47:18.995Z,58.83
2022-12-15T16:49:47.025Z,58.67
2022-12-15T16:52:21.044Z,58.48
2022-12-15T16:54:50.847Z,59.33
2022-12-15T16:57:19.624Z,59.16
2022-12-15T16:59:48.196Z,58.87
2022-12-15T17:02:28.391Z,58.51
2022-12-15T17:04:56.633Z,58.63
2022-12-15T17:07:29.287Z,59.01
2022-12-15T17:09:57.777Z,58.77
2022-12-15T17:12:25.891Z,58.55
2022-12-15T17:14:53.906Z,58.56
2022-12-15T17:17:21.965Z,58.51
2022-12-15T17:20:28.078Z,58.79
2022-12-15T17:22:41.452Z,58.80
2022-12-15T17:25:17.229Z,58.44
2022-12-15T17:27:46.025Z,58.80
2022-12-15T17:30:16.761Z,58.67
2022-12-15T17:32:45.683Z,58.93
2022-12-15T17:35:14.034Z,59.13
2022-12-15T17:37:47.678Z,58.91
2022-12-15T17:40:18.391Z,59.26
2022-12-15T17:42:47.249Z,60.03
2022-12-15T17:45:21.710Z,59.40
2022-12-15T17:47:50.325Z,59.36
2022-12-15T17:50:19.273Z,59.24
2022-12-15T17:52:50.020Z,59.77
2022-12-15T17:55:31.755Z,59.70
2022-12-15T17:58:03.820Z,59.58
2022-12-15T18:00:33.431Z,59.70
2022-12-15T18:03:02.035Z,59.84
2022-12-15T18:05:31.598Z,59.91
2022-12-15T18:08:04.030Z,60.02
2022-12-15T18:10:35.642Z,60.53
2022-12-15T18:13:03.765Z,60.51
2022-12-15T18:15:33.383Z,60.53
2022-12-15T18:18:01.441Z,60.60
2022-12-15T18:20:29.580Z,59.99
2022-12-15T18:22:57.549Z,60.41
2022-12-15T18:25:28.696Z,60.35
2022-12-15T18:27:58.429Z,60.28
2022-12-15T18:30:28.373Z,60.25
2022-12-15T18:32:59.577Z,59.96
2022-12-15T18:35:33.799Z,60.00
2022-12-15T18:38:01.994Z,60.26
2022-12-15T18:40:31.616Z,60.15
2022-12-15T18:42:59.699Z,60.44
2022-12-15T18:45:28.505Z,60.57
2022-12-15T18:47:56.622Z,60.10
2022-12-15T18:50:26.362Z,59.81
2022-12-15T18:52:59.713Z,60.78
2022-12-15T18:55:32.272Z,60.20
2022-12-15T18:58:01.712Z,59.83
2022-12-15T19:00:32.387Z,59.77
2022-12-15T19:03:01.210Z,60.15
2022-12-15T19:05:30.004Z,60.52
2022-12-15T19:08:01.129Z,60.40
2022-12-15T19:10:32.926Z,60.10
2022-12-15T19:13:01.085Z,59.69
2022-12-15T19:15:29.344Z,60.65
2022-12-15T19:18:14.761Z,60.18
2022-12-15T19:21:01.251Z,59.73
2022-12-15T19:23:29.410Z,60.24
2022-12-15T19:25:59.156Z,59.69
2022-12-15T19:28:27.482Z,59.82
2022-12-15T19:30:55.565Z,59.70
2022-12-15T19:33:24.442Z,60.30
2022-12-15T19:35:54.935Z,60.05
2022-12-15T19:38:25.799Z,59.86
2022-12-15T19:40:55.223Z,60.46
2022-12-15T19:43:25.606Z,59.94
2022-12-15T19:45:54.398Z,59.67
2022-12-15T19:48:24.072Z,59.36
2022-12-15T19:50:54.713Z,59.11
2022-12-15T19:53:26.509Z,58.94
2022-12-15T19:55:56.532Z,58.94
2022-12-15T19:58:29.790Z,59.05
2022-12-15T20:00:59.418Z,59.19
2022-12-15T20:03:29.155Z,59.32
2022-12-15T20:05:58.607Z,59.59
2022-12-15T20:08:28.474Z,59.36
2022-12-15T20:10:57.249Z,59.57
2022-12-15T20:13:27.114Z,59.64
2022-12-15T20:15:56.105Z,59.48
2022-12-15T20:18:24.101Z,59.40
2022-12-15T20:20:52.273Z,59.83
2022-12-15T20:23:26.299Z,59.78
2022-12-15T20:25:55.875Z,60.00
2022-12-15T20:28:27.960Z,60.05
2022-12-15T20:30:57.159Z,59.53
2022-12-15T20:33:25.738Z,59.56
2022-12-15T20:35:53.917Z,59.27
2022-12-15T20:38:29.925Z,59.39
2022-12-15T20:40:58.016Z,59.38
2022-12-15T20:43:31.237Z,59.54
2022-12-15T20:46:04.123Z,59.40
2022-12-15T20:48:34.785Z,59.46
2022-12-15T20:51:07.417Z,59.36
2022-12-15T20:53:37.680Z,59.38
2022-12-15T20:56:06.216Z,59.18
2022-12-15T20:58:41.908Z,59.34
2022-12-15T21:01:21.459Z,58.67
2022-12-15T21:03:52.032Z,58.89
2022-12-15T21:06:20.637Z,59.26
2022-12-15T21:08:49.435Z,58.91
2022-12-15T21:11:20.025Z,58.97
2022-12-15T21:13:50.893Z,58.84
2022-12-15T21:16:21.155Z,59.25
2022-12-15T21:21:41.127Z,59.30
2022-12-15T21:24:16.492Z,59.42
2022-12-15T21:26:44.754Z,59.88
2022-12-15T21:29:16.836Z,59.73
2022-12-15T21:31:45.527Z,59.46
2022-12-15T21:34:14.295Z,59.84
2022-12-15T21:36:44.506Z,59.54
2022-12-15T21:39:16.147Z,59.44
2022-12-15T21:41:44.500Z,59.51
2022-12-15T21:44:15.868Z,59.44
2022-12-15T21:46:43.993Z,59.43
2022-12-15T21:49:18.415Z,59.67
2022-12-15T21:51:49.625Z,59.74
2022-12-15T21:54:27.394Z,59.52
2022-12-15T21:56:58.782Z,59.32
2022-12-15T21:59:30.449Z,59.08
2022-12-15T22:02:00.350Z,59.41
2022-12-15T22:04:32.345Z,59.00
2022-12-15T22:07:00.576Z,58.70
2022-12-15T22:09:28.685Z,58.75
2022-12-15T22:11:57.863Z,58.69
2022-12-15T22:14:29.398Z,58.64
2022-12-15T22:16:58.286Z,58.47
2022-12-15T22:19:26.344Z,58.64
2022-12-15T22:21:54.465Z,58.94
2022-12-15T22:24:23.267Z,59.38
2022-12-15T22:26:51.588Z,59.43
2022-12-15T22:29:22.639Z,59.32
2022-12-15T22:31:52.588Z,59.24
2022-12-15T22:34:25.071Z,58.99
2022-12-15T22:36:53.391Z,59.19
2022-12-15T22:39:23.090Z,59.37
2022-12-15T22:41:53.590Z,59.30
2022-12-15T22:44:24.872Z,59.06
2022-12-15T22:46:56.919Z,59.38
2022-12-15T22:49:28.698Z,59.67
2022-12-15T22:51:56.757Z,59.67
2022-12-15T22:54:27.088Z,59.80
2022-12-15T22:56:58.420Z,59.57
2022-12-15T22:59:31.105Z,59.80
2022-12-15T23:02:02.168Z,59.67
2022-12-15T23:04:30.919Z,59.29
2022-12-15T23:06:59.813Z,58.95
2022-12-15T23:09:27.804Z,59.87
2022-12-15T23:11:55.687Z,59.90
2022-12-15T23:14:44.335Z,59.90
2022-12-15T23:17:13.784Z,60.09
2022-12-15T23:19:44.771Z,60.51
2022-12-15T23:22:13.064Z,60.27
2022-12-15T23:24:41.106Z,60.22
2022-12-15T23:27:11.272Z,60.13
2022-12-15T23:29:39.396Z,60.11
2022-12-15T23:32:07.603Z,60.20
2022-12-15T23:34:37.630Z,60.69
2022-12-15T23:37:05.659Z,60.37
2022-12-15T23:39:33.678Z,60.40
2022-12-15T23:42:01.747Z,60.46
2022-12-15T23:44:30.162Z,60.44
2022-12-15T23:46:58.422Z,60.37
2022-12-15T23:49:26.456Z,60.31
2022-12-15T23:51:55.902Z,60.19
2022-12-15T23:54:23.913Z,60.62
2022-12-15T23:56:51.907Z,60.64
2022-12-15T23:59:20.148Z,60.74
